ILD weather

Lleida-Alguaire Airport
Lleida, Catalonia, Spain

Public forecast

Using degrees Celsius for public forecast. Weather courtesy of forecast.io.

METAR (pilot weather report)

Retrieved 2019/09/22 07:30 UTC (0 seconds ago):

LEDA 220730Z 07005KT 9999 FEW017 19/17 Q1013

TAF (pilot weather forecast)

Retrieved 2019/09/22 03:00 UTC (4 hours ago):

TAF LEDA 220200Z 2203/2303 07008KT 9999 FEW050 TX30/2215Z TN16/2205Z PROB40 TEMPO 2203/2207 4000 BR BKN010 BECMG 2206/2208 24010KT BECMG 2211/2213 30010KT PROB40 TEMPO 2209/2215 SHRA FEW020CB